Time;durP1;ratioP1;P1;durP2;ratioP2;P2;SDS_P1;SDS_P2;PMS_P1;PMS_P2;Temp;Humidity;BMP_temperature;BMP_pressure;BME280_temperature;BME280_humidity;BME280_pressure;Samples;Min_cycle;Max_cycle;Signal;HPM_P1;HPM_P2
2022/09/26 06:26:28;;;;;;;8.00;5.90;;;10.10;99.90;;;;;;5076034;28;20550;-87
2022/09/26 06:28:59;;;;;;;9.20;6.53;;;10.20;99.90;;;;;;5073888;28;20185;-87
2022/09/26 07:50:55;;;;;;;4.57;3.73;;;10.90;99.90;;;;;;5141131;27;20273;-85
2022/09/26 07:53:20;;;;;;;4.00;3.23;;;11.00;99.90;;;;;;5139230;28;20166;-86
2022/09/26 07:56:04;;;;;;;3.33;3.03;;;11.10;99.90;;;;;;5135145;28;20167;-86
2022/09/26 07:58:32;;;;;;;3.30;3.00;;;11.20;99.90;;;;;;5135727;28;20640;-86
2022/09/26 08:00:58;;;;;;;3.93;2.30;;;11.20;99.90;;;;;;5136319;28;20223;-85
2022/09/26 08:03:28;;;;;;;6.10;3.60;;;11.40;99.90;;;;;;5138986;27;20227;-85
2022/09/26 08:05:57;;;;;;;6.13;4.27;;;11.60;99.90;;;;;;5137387;27;20632;-86
2022/09/26 08:08:23;;;;;;;3.50;3.17;;;11.90;99.90;;;;;;5134820;28;20185;-86
2022/09/26 08:10:48;;;;;;;3.23;2.50;;;12.20;99.90;;;;;;5137304;27;20175;-85
2022/09/26 08:13:14;;;;;;;2.90;2.10;;;12.70;99.90;;;;;;5135624;28;20205;-86
2022/09/26 08:15:40;;;;;;;3.03;2.17;;;13.10;99.90;;;;;;5139839;28;20632;-86
2022/09/26 08:18:05;;;;;;;3.27;2.13;;;13.20;99.90;;;;;;5141082;27;20570;-86
2022/09/26 08:20:32;;;;;;;2.80;2.27;;;13.40;99.90;;;;;;5139672;28;20183;-85
2022/09/26 08:22:58;;;;;;;2.50;2.30;;;13.30;99.90;;;;;;5140363;27;20171;-86
2022/09/26 08:25:24;;;;;;;2.70;2.30;;;12.90;99.90;;;;;;5136154;28;20214;-85
2022/09/26 08:27:50;;;;;;;2.53;2.23;;;12.70;99.90;;;;;;5136621;28;20179;-87
2022/09/26 08:30:16;;;;;;;2.27;1.80;;;12.60;99.90;;;;;;5138726;27;20199;-85
2022/09/26 08:32:43;;;;;;;2.03;1.80;;;12.30;99.90;;;;;;5137652;28;20182;-85
2022/09/26 08:35:13;;;;;;;2.20;2.00;;;12.10;99.90;;;;;;5138176;28;20195;-85
2022/09/26 08:37:39;;;;;;;1.60;1.50;;;12.00;99.90;;;;;;5136888;28;20672;-87
2022/09/26 08:40:06;;;;;;;5.00;1.40;;;11.90;99.90;;;;;;5136687;28;20218;-86
2022/09/26 08:43:03;;;;;;;1.60;1.50;;;11.70;99.90;;;;;;5137150;28;20185;-86
2022/09/26 08:48:44;;;;;;;1.67;1.20;;;11.40;99.90;;;;;;5138259;27;20164;-86
2022/09/26 08:51:23;;;;;;;1.43;1.20;;;11.30;99.90;;;;;;5138088;28;20174;-87
2022/09/26 08:54:17;;;;;;;1.30;1.10;;;11.10;99.90;;;;;;5138911;27;20278;-87
2022/09/26 08:56:55;;;;;;;1.93;1.20;;;11.00;99.90;;;;;;5122803;28;20184;-88
2022/09/26 08:59:30;;;;;;;1.13;0.97;;;10.90;99.90;;;;;;5140285;28;20182;-87
2022/09/26 09:02:02;;;;;;;1.67;1.10;;;10.80;99.90;;;;;;5129628;28;20232;-86
2022/09/26 09:04:43;;;;;;;1.43;1.30;;;10.80;99.90;;;;;;5127558;28;20200;-86
2022/09/26 09:07:20;;;;;;;1.20;1.10;;;10.70;99.90;;;;;;5124957;28;20159;-87
2022/09/26 09:09:46;;;;;;;4.23;1.30;;;10.70;99.90;;;;;;5123260;28;20195;-87
2022/09/26 09:12:20;;;;;;;1.87;1.40;;;10.70;99.90;;;;;;5123053;28;20248;-88
2022/09/26 09:15:02;;;;;;;1.10;0.90;;;10.70;99.90;;;;;;5124914;28;20200;-88
2022/09/26 09:17:31;;;;;;;2.13;1.43;;;10.70;99.90;;;;;;5123441;28;20163;-88
2022/09/26 09:20:25;;;;;;;2.63;1.83;;;10.70;99.90;;;;;;5123155;28;20186;-88
2022/09/26 09:23:18;;;;;;;2.30;2.10;;;10.80;99.90;;;;;;5121276;28;20264;-86
2022/09/26 09:25:59;;;;;;;2.33;1.63;;;10.80;99.90;;;;;;5121873;28;20207;-87
2022/09/26 09:28:56;;;;;;;4.07;2.20;;;10.80;99.90;;;;;;5118788;28;20363;-87
2022/09/26 09:31:24;;;;;;;2.23;1.57;;;10.80;99.90;;;;;;5122325;28;20209;-87
2022/09/26 09:33:56;;;;;;;1.93;1.50;;;10.80;99.90;;;;;;5120766;28;20538;-88
2022/09/26 09:36:32;;;;;;;4.53;2.40;;;10.80;99.90;;;;;;5121035;28;20179;-88
2022/09/26 09:39:12;;;;;;;4.03;2.30;;;11.00;99.90;;;;;;5120916;28;20174;-86
2022/09/26 09:41:53;;;;;;;7.73;6.73;;;11.10;99.90;;;;;;5121532;28;20179;-88
2022/09/26 09:44:59;;;;;;;1.90;1.60;;;11.20;99.90;;;;;;5121152;28;20206;-87
2022/09/26 09:47:28;;;;;;;2.33;1.87;;;11.30;99.90;;;;;;5120515;28;20171;-88
2022/09/26 09:49:55;;;;;;;2.20;1.70;;;11.30;99.90;;;;;;5118913;28;20412;-88
2022/09/26 09:52:59;;;;;;;2.47;1.80;;;11.40;99.90;;;;;;5118064;28;20180;-87
2022/09/26 09:55:53;;;;;;;2.23;2.03;;;11.80;99.90;;;;;;5108430;28;20206;-87
2022/09/26 09:58:25;;;;;;;1.90;1.73;;;12.60;99.90;;;;;;5118295;28;20179;-86
2022/09/26 10:01:06;;;;;;;2.13;1.77;;;13.20;99.90;;;;;;5120422;28;20171;-87
2022/09/26 10:03:49;;;;;;;2.30;1.90;;;13.40;99.90;;;;;;5121302;28;20205;-87
2022/09/26 10:06:15;;;;;;;1.53;1.43;;;13.40;99.90;;;;;;5117979;28;20172;-87
2022/09/26 10:08:41;;;;;;;1.70;1.60;;;13.40;99.90;;;;;;5118274;28;20179;-88
2022/09/26 10:11:11;;;;;;;4.40;2.33;;;13.30;99.90;;;;;;5119054;28;20577;-86
2022/09/26 10:13:41;;;;;;;3.10;2.20;;;13.20;99.90;;;;;;5117387;28;20730;-88
2022/09/26 10:16:15;;;;;;;4.40;3.37;;;13.00;99.90;;;;;;5127622;27;20579;-88
2022/09/26 10:19:04;;;;;;;4.57;3.77;;;12.80;99.90;;;;;;5121302;28;20167;-88
2022/09/26 10:21:38;;;;;;;5.20;3.93;;;12.80;99.90;;;;;;5118539;28;20541;-87
2022/09/26 10:24:06;;;;;;;4.13;3.00;;;12.80;99.90;;;;;;5117629;28;20668;-86
2022/09/26 10:26:33;;;;;;;6.07;4.00;;;12.90;99.90;;;;;;5118134;28;20183;-88
2022/09/26 10:29:33;;;;;;;3.23;2.50;;;13.10;99.90;;;;;;5118047;28;20227;-87
2022/09/26 10:32:00;;;;;;;3.37;2.90;;;13.50;99.90;;;;;;5121204;28;20147;-86
2022/09/26 10:34:28;;;;;;;3.40;2.60;;;15.00;99.90;;;;;;5117288;28;20199;-86
2022/09/26 10:36:54;;;;;;;3.97;2.60;;;15.40;99.90;;;;;;5118774;28;20175;-87
2022/09/26 10:42:21;;;;;;;2.80;2.50;;;15.60;99.90;;;;;;5119445;28;20179;-87
2022/09/26 10:44:48;;;;;;;4.60;3.93;;;15.40;99.90;;;;;;5122081;28;20209;-86
2022/09/26 10:47:23;;;;;;;4.57;3.30;;;14.90;99.90;;;;;;5121811;28;20272;-86
2022/09/26 10:50:01;;;;;;;4.20;3.27;;;14.60;99.90;;;;;;5124631;28;20211;-87
2022/09/26 10:52:48;;;;;;;3.93;2.70;;;14.10;99.90;;;;;;5124491;28;20162;-87
2022/09/26 10:55:24;;;;;;;2.67;2.40;;;13.70;99.90;;;;;;5125108;28;20200;-86
2022/09/26 10:57:54;;;;;;;3.17;2.80;;;13.40;99.90;;;;;;5124103;28;20178;-88
2022/09/26 11:00:42;;;;;;;6.00;4.87;;;13.00;99.90;;;;;;5124230;28;20197;-87
2022/09/26 11:03:15;;;;;;;4.77;4.13;;;12.90;99.90;;;;;;5122681;28;20238;-84
2022/09/26 11:06:00;;;;;;;4.37;2.87;;;12.90;99.90;;;;;;5123504;28;20208;-87
2022/09/26 11:08:29;;;;;;;6.83;5.63;;;12.90;99.90;;;;;;5123346;28;20194;-85
2022/09/26 11:11:01;;;;;;;2.47;2.03;;;13.10;99.90;;;;;;5123808;28;20170;-85
2022/09/26 11:13:31;;;;;;;3.80;2.73;;;13.40;99.90;;;;;;5124925;28;20264;-85
2022/09/26 11:16:01;;;;;;;3.43;2.47;;;13.50;99.90;;;;;;5124899;28;20159;-86
2022/09/26 11:18:51;;;;;;;4.10;3.70;;;13.60;99.90;;;;;;5122558;28;20180;-87
2022/09/26 11:21:40;;;;;;;6.27;5.00;;;13.50;99.90;;;;;;5122605;28;20177;-85
2022/09/26 11:24:25;;;;;;;4.63;3.00;;;14.10;99.90;;;;;;5121993;28;20204;-88
2022/09/26 11:27:05;;;;;;;5.77;3.47;;;14.40;99.90;;;;;;5122660;28;20213;-86
2022/09/26 11:30:00;;;;;;;3.83;2.80;;;14.90;99.90;;;;;;5122073;28;20196;-85
2022/09/26 11:32:32;;;;;;;2.60;2.10;;;15.00;99.90;;;;;;5121580;28;20667;-85
2022/09/26 11:35:01;;;;;;;2.33;2.03;;;15.40;99.90;;;;;;5120965;28;20205;-87
2022/09/26 11:37:40;;;;;;;3.33;2.60;;;15.60;99.90;;;;;;5122407;28;20182;-86
2022/09/26 11:40:08;;;;;;;3.00;2.23;;;15.60;99.90;;;;;;5122721;28;20169;-87
2022/09/26 11:42:51;;;;;;;3.23;2.20;;;14.80;99.90;;;;;;5123579;28;20201;-87
2022/09/26 11:45:44;;;;;;;3.67;2.50;;;14.80;99.90;;;;;;5120226;28;20204;-87
2022/09/26 11:48:33;;;;;;;4.50;2.87;;;14.20;99.90;;;;;;5121244;28;20185;-86
2022/09/26 11:51:33;;;;;;;2.23;2.03;;;14.20;99.90;;;;;;5124453;28;20628;-85
2022/09/26 11:54:08;;;;;;;3.60;2.77;;;14.10;99.90;;;;;;5122643;28;20191;-86
2022/09/26 11:56:43;;;;;;;3.70;2.87;;;14.20;99.90;;;;;;5122297;28;20165;-86
2022/09/26 11:59:51;;;;;;;4.30;3.77;;;14.20;99.90;;;;;;5121889;28;20166;-86
2022/09/26 12:02:32;;;;;;;4.43;2.43;;;14.20;99.90;;;;;;5122107;28;20182;-86
2022/09/26 12:05:34;;;;;;;3.50;2.77;;;14.50;99.90;;;;;;5123395;28;20190;-85
2022/09/26 12:08:12;;;;;;;3.03;2.40;;;15.70;99.90;;;;;;5120850;28;20530;-87
2022/09/26 12:10:47;;;;;;;2.27;1.83;;;15.50;99.90;;;;;;5121002;28;20680;-85
2022/09/26 12:13:51;;;;;;;3.37;2.20;;;14.70;99.90;;;;;;5117346;28;20149;-86
2022/09/26 12:16:48;;;;;;;2.80;2.00;;;14.60;99.90;;;;;;5115849;28;20173;-86
2022/09/26 12:19:43;;;;;;;2.67;2.07;;;14.40;99.90;;;;;;5099214;28;20188;-87
2022/09/26 12:22:27;;;;;;;2.17;1.97;;;14.30;99.90;;;;;;5118565;28;20646;-85
2022/09/26 12:25:22;;;;;;;5.70;2.50;;;14.20;99.90;;;;;;5117111;28;20207;-86
2022/09/26 12:28:29;;;;;;;2.00;1.73;;;14.20;99.90;;;;;;5119004;28;20169;-86
2022/09/26 12:31:04;;;;;;;2.53;1.87;;;14.30;99.90;;;;;;5118893;28;20608;-86
2022/09/26 12:33:33;;;;;;;2.67;2.10;;;14.00;99.90;;;;;;5118227;28;20210;-87
2022/09/26 12:36:46;;;;;;;1.90;1.67;;;14.00;99.90;;;;;;5118959;28;20174;-85
2022/09/26 12:39:24;;;;;;;3.47;2.00;;;14.10;99.90;;;;;;5103785;28;20219;-86
2022/09/26 12:42:16;;;;;;;1.97;1.73;;;14.00;99.90;;;;;;5119944;28;20268;-85
2022/09/26 12:45:01;;;;;;;2.73;2.00;;;15.20;99.90;;;;;;5121018;28;20663;-87
2022/09/26 12:48:19;;;;;;;2.20;1.90;;;15.90;99.90;;;;;;5119182;28;20225;-86
2022/09/26 12:51:27;;;;;;;2.10;1.90;;;16.40;99.90;;;;;;5061905;28;20252;-86
2022/09/26 12:54:11;;;;;;;2.30;1.87;;;17.40;99.90;;;;;;5049853;28;20295;-86
2022/09/26 12:56:43;;;;;;;2.10;1.90;;;18.50;99.90;;;;;;5119654;28;20244;-85
2022/09/26 12:59:42;;;;;;;3.33;2.20;;;19.20;99.90;;;;;;5120001;28;20186;-88
2022/09/26 13:02:36;;;;;;;2.20;2.00;;;19.60;99.90;;;;;;5121052;28;20186;-87
2022/09/26 13:05:26;;;;;;;2.93;1.83;;;20.20;99.90;;;;;;5121381;28;20192;-86
2022/09/26 13:08:07;;;;;;;2.03;1.83;;;19.40;99.90;;;;;;5121578;28;20173;-87
2022/09/26 13:10:33;;;;;;;2.70;2.50;;;19.40;99.90;;;;;;5121652;28;20227;-85
2022/09/26 13:13:09;;;;;;;1.97;1.80;;;19.80;99.90;;;;;;5120163;28;20185;-86
2022/09/26 13:16:10;;;;;;;2.63;1.97;;;19.60;99.90;;;;;;5120931;28;20159;-85
2022/09/26 13:18:44;;;;;;;2.10;1.80;;;19.80;99.90;;;;;;5119973;28;20186;-86
2022/09/26 13:21:39;;;;;;;2.00;1.90;;;19.70;99.90;;;;;;5121598;28;20178;-87
2022/09/26 13:24:17;;;;;;;2.87;1.80;;;19.90;99.90;;;;;;5121086;28;20198;-87
2022/09/26 13:26:48;;;;;;;1.87;1.77;;;20.20;99.90;;;;;;5120195;28;20178;-87
2022/09/26 13:29:26;;;;;;;2.27;1.77;;;20.60;99.90;;;;;;5120684;28;20199;-87
2022/09/26 13:32:15;;;;;;;2.10;1.80;;;20.60;99.90;;;;;;5119936;28;20171;-86
2022/09/26 13:34:49;;;;;;;2.77;1.60;;;20.80;99.90;;;;;;5110239;28;20347;-85
2022/09/26 13:37:51;;;;;;;2.00;1.47;;;21.10;99.90;;;;;;5121244;28;20162;-87
2022/09/26 13:40:41;;;;;;;1.70;1.60;;;21.40;99.90;;;;;;5109476;28;20179;-88
2022/09/26 13:43:33;;;;;;;2.27;1.53;;;21.80;99.90;;;;;;5120862;28;20224;-87
2022/09/26 13:46:38;;;;;;;2.63;1.50;;;22.00;98.00;;;;;;5114481;27;20214;-86
2022/09/26 13:49:33;;;;;;;2.80;1.53;;;21.50;96.50;;;;;;5127729;28;20374;-88
2022/09/26 13:52:27;;;;;;;1.63;1.40;;;21.00;98.00;;;;;;5121049;28;20649;-86
2022/09/26 13:55:09;;;;;;;1.87;1.40;;;21.00;98.60;;;;;;5118341;28;20664;-86
2022/09/26 13:57:34;;;;;;;1.83;1.57;;;21.50;97.30;;;;;;5119551;28;20246;-86
2022/09/26 14:00:30;;;;;;;1.50;1.20;;;21.40;97.70;;;;;;5120633;28;20252;-88
2022/09/26 14:03:17;;;;;;;2.17;1.50;;;21.30;94.50;;;;;;5115568;28;20556;-88
2022/09/26 14:05:46;;;;;;;1.60;1.17;;;21.50;96.20;;;;;;5119374;28;20242;-86
2022/09/26 14:11:17;;;;;;;2.27;1.50;;;20.30;93.00;;;;;;5119802;28;20208;-86
2022/09/26 14:13:45;;;;;;;1.30;1.13;;;20.50;95.10;;;;;;5118150;28;20809;-86
2022/09/26 14:16:25;;;;;;;1.43;1.20;;;20.60;95.30;;;;;;5118928;28;20199;-85
2022/09/26 14:18:54;;;;;;;1.60;1.00;;;20.90;96.10;;;;;;5121336;28;20175;-88
2022/09/26 14:21:32;;;;;;;1.97;1.30;;;21.00;92.10;;;;;;5120621;28;20175;-85
2022/09/26 14:24:19;;;;;;;1.60;0.90;;;21.00;92.00;;;;;;5120073;28;20197;-87
2022/09/26 14:26:56;;;;;;;1.50;1.40;;;20.90;91.50;;;;;;5119804;28;20179;-85
2022/09/26 14:29:28;;;;;;;2.37;1.23;;;20.50;93.70;;;;;;5119216;28;20651;-86
2022/09/26 14:32:16;;;;;;;1.20;1.10;;;20.20;94.20;;;;;;5118070;28;20180;-87
2022/09/26 14:35:00;;;;;;;2.40;1.00;;;19.50;91.40;;;;;;5119844;28;20196;-86
2022/09/26 14:37:39;;;;;;;1.30;1.20;;;19.30;93.80;;;;;;5119513;27;20176;-85
2022/09/26 14:40:28;;;;;;;1.23;1.00;;;19.00;92.90;;;;;;5120368;28;20168;-87
2022/09/26 14:43:16;;;;;;;1.37;1.17;;;18.30;93.60;;;;;;5119194;28;20179;-85
2022/09/26 14:46:00;;;;;;;1.67;1.40;;;17.90;95.20;;;;;;5117483;28;20182;-84
2022/09/26 14:48:39;;;;;;;2.60;1.50;;;17.20;96.10;;;;;;5119050;28;20178;-86
2022/09/26 14:51:18;;;;;;;1.40;1.30;;;16.50;96.70;;;;;;5118139;28;20235;-86
2022/09/26 14:53:46;;;;;;;1.63;1.53;;;15.90;97.30;;;;;;5118343;28;20541;-88
2022/09/26 14:56:36;;;;;;;1.93;1.53;;;15.90;97.80;;;;;;5118189;28;20173;-86
2022/09/26 14:59:23;;;;;;;3.13;1.93;;;15.70;99.40;;;;;;5117568;28;20168;-86
2022/09/26 15:01:50;;;;;;;1.40;1.30;;;15.40;99.80;;;;;;5118709;28;20194;-84
2022/09/26 15:04:22;;;;;;;2.77;2.03;;;15.30;99.90;;;;;;5120976;28;20282;-84
2022/09/26 15:07:03;;;;;;;1.67;1.53;;;15.20;99.90;;;;;;5118648;28;20180;-83
2022/09/26 15:09:39;;;;;;;2.43;1.40;;;15.00;99.90;;;;;;5121085;28;20195;-86
2022/09/26 15:12:15;;;;;;;2.67;1.27;;;14.90;99.90;;;;;;5118842;28;20164;-85
2022/09/26 15:14:47;;;;;;;1.47;1.30;;;14.80;99.90;;;;;;5117749;28;20227;-85
2022/09/26 15:17:23;;;;;;;1.90;1.40;;;14.70;99.90;;;;;;5118264;28;20551;-85
2022/09/26 15:19:52;;;;;;;1.60;1.50;;;14.60;99.90;;;;;;5119717;28;20148;-85
2022/09/26 15:22:22;;;;;;;1.97;1.60;;;14.40;99.90;;;;;;5118960;28;20167;-85
2022/09/26 15:24:53;;;;;;;4.10;1.70;;;14.20;99.90;;;;;;5117268;28;20563;-85
2022/09/26 15:27:26;;;;;;;1.77;1.17;;;14.10;99.90;;;;;;5118792;28;20168;-86
2022/09/26 15:30:13;;;;;;;1.50;1.20;;;14.00;99.90;;;;;;5118771;28;20203;-84
2022/09/26 15:32:39;;;;;;;1.50;1.40;;;13.80;99.90;;;;;;5118405;28;20155;-86
2022/09/26 15:35:05;;;;;;;2.20;1.60;;;13.60;99.90;;;;;;5118846;28;20225;-86
2022/09/26 15:37:35;;;;;;;2.23;1.50;;;13.50;99.90;;;;;;5117331;28;20167;-87
2022/09/26 15:40:09;;;;;;;2.47;1.27;;;13.40;99.90;;;;;;5122039;28;20526;-87
2022/09/26 15:45:34;;;;;;;1.87;1.30;;;13.30;99.90;;;;;;5120554;28;20248;-87
2022/09/26 15:48:22;;;;;;;2.10;1.40;;;13.20;99.90;;;;;;5117798;28;20238;-86
2022/09/26 15:51:11;;;;;;;2.70;1.30;;;13.20;99.90;;;;;;5130685;28;20191;-85
2022/09/26 15:53:44;;;;;;;3.20;1.90;;;13.10;99.90;;;;;;5117966;28;20215;-86
2022/09/26 15:56:23;;;;;;;2.13;1.77;;;13.20;99.90;;;;;;5116228;28;20164;-83
2022/09/26 15:59:32;;;;;;;2.20;1.50;;;13.20;99.90;;;;;;5119939;28;20182;-81
2022/09/26 16:01:59;;;;;;;2.47;1.87;;;13.10;99.90;;;;;;5113067;28;20235;-84
2022/09/26 16:04:30;;;;;;;2.80;2.13;;;13.00;99.90;;;;;;5118556;28;20660;-81
2022/09/26 16:06:56;;;;;;;4.07;2.53;;;13.00;99.90;;;;;;5116577;28;20164;-82
2022/09/26 16:09:41;;;;;;;2.20;1.80;;;13.00;99.90;;;;;;5115410;28;20206;-82
2022/09/26 16:12:29;;;;;;;2.03;1.40;;;12.90;99.90;;;;;;5120929;28;20202;-83
2022/09/26 16:14:57;;;;;;;4.10;1.57;;;12.80;99.90;;;;;;5120730;28;20283;-82
2022/09/26 16:17:36;;;;;;;2.07;1.63;;;12.70;99.90;;;;;;5121890;28;20761;-83
2022/09/26 16:20:23;;;;;;;2.10;1.70;;;12.60;99.90;;;;;;5122707;28;20212;-83
2022/09/26 16:22:55;;;;;;;18.33;14.30;;;12.50;99.90;;;;;;5120283;28;20164;-81
2022/09/26 16:25:34;;;;;;;11.53;10.43;;;12.50;99.90;;;;;;5121080;28;20672;-82
2022/09/26 16:28:21;;;;;;;4.37;4.00;;;12.40;99.90;;;;;;5121618;28;20177;-81
2022/09/26 16:30:58;;;;;;;3.40;1.80;;;12.40;99.90;;;;;;5121596;28;20553;-84
2022/09/26 16:33:32;;;;;;;2.63;2.43;;;12.30;99.90;;;;;;5120857;28;20171;-82
2022/09/26 16:36:16;;;;;;;2.93;2.10;;;12.40;99.90;;;;;;5120246;28;20204;-82
2022/09/26 16:38:48;;;;;;;3.67;2.20;;;12.30;99.90;;;;;;5121818;28;20523;-81
2022/09/26 16:41:29;;;;;;;2.83;2.30;;;12.30;99.90;;;;;;5121034;28;20177;-82
2022/09/26 16:44:00;;;;;;;3.03;2.73;;;12.20;99.90;;;;;;5120940;28;20192;-82
2022/09/26 16:46:32;;;;;;;3.07;2.27;;;12.20;99.90;;;;;;5122420;28;20179;-83
2022/09/26 16:49:00;;;;;;;3.37;2.77;;;12.10;99.90;;;;;;5122102;28;20244;-82
2022/09/26 16:51:37;;;;;;;2.87;2.20;;;12.10;99.90;;;;;;5121128;28;20225;-83
2022/09/26 16:54:16;;;;;;;5.73;2.93;;;11.90;99.90;;;;;;5103143;28;20188;-83
2022/09/26 16:56:43;;;;;;;8.90;6.50;;;11.90;99.90;;;;;;5122511;28;20253;-82
2022/09/26 16:59:24;;;;;;;6.17;5.47;;;11.80;99.90;;;;;;5121037;28;20182;-83
2022/09/26 17:01:57;;;;;;;11.03;9.90;;;11.80;99.90;;;;;;5121697;28;20175;-81
2022/09/26 17:04:33;;;;;;;7.83;6.63;;;11.70;99.90;;;;;;5121315;28;20195;-83
2022/09/26 17:07:12;;;;;;;6.63;4.70;;;11.70;99.90;;;;;;5121374;28;20168;-82
2022/09/26 17:09:40;;;;;;;40.63;29.93;;;11.70;99.90;;;;;;5120405;28;20198;-84
2022/09/26 17:12:26;;;;;;;26.43;22.30;;;11.70;99.90;;;;;;5119744;28;20182;-83
2022/09/26 17:14:53;;;;;;;28.83;24.30;;;11.60;99.90;;;;;;5121286;28;20551;-82
2022/09/26 17:17:23;;;;;;;23.10;19.07;;;11.60;99.90;;;;;;5121014;28;20176;-83
2022/09/26 17:19:51;;;;;;;14.27;11.27;;;11.60;99.90;;;;;;5122284;28;20242;-82
2022/09/26 17:22:19;;;;;;;23.57;18.63;;;11.60;99.90;;;;;;5121489;28;20171;-81
2022/09/26 17:24:47;;;;;;;35.10;24.23;;;11.60;99.90;;;;;;5120587;28;20200;-81
2022/09/26 17:27:16;;;;;;;23.17;13.80;;;11.60;99.90;;;;;;5120561;28;20732;-82
2022/09/26 17:29:44;;;;;;;5.87;3.67;;;11.60;99.90;;;;;;5119141;28;20195;-82
2022/09/26 17:32:32;;;;;;;8.87;4.30;;;11.60;99.90;;;;;;5120073;28;20207;-84
2022/09/26 17:35:07;;;;;;;4.53;3.00;;;11.60;99.90;;;;;;5119699;28;20636;-82
2022/09/26 17:37:32;;;;;;;4.03;2.90;;;11.50;99.90;;;;;;5119037;28;20198;-81
2022/09/26 17:39:58;;;;;;;3.33;2.27;;;11.60;99.90;;;;;;5120309;28;20179;-81
2022/09/26 17:42:24;;;;;;;3.70;2.43;;;11.50;99.90;;;;;;5120425;28;20179;-81
2022/09/26 17:44:50;;;;;;;2.80;2.47;;;11.50;99.90;;;;;;5118899;28;20196;-81
2022/09/26 17:47:17;;;;;;;3.53;2.30;;;11.50;99.90;;;;;;5120858;28;20176;-82
2022/09/26 17:49:56;;;;;;;3.20;2.60;;;11.40;99.90;;;;;;5121299;28;20211;-83
2022/09/26 17:52:27;;;;;;;3.80;2.53;;;11.40;99.90;;;;;;5121915;28;20578;-83
2022/09/26 17:54:56;;;;;;;6.17;2.37;;;11.40;99.90;;;;;;5121114;28;20217;-82
2022/09/26 17:57:28;;;;;;;4.37;2.53;;;11.30;99.90;;;;;;5119557;28;20178;-82
2022/09/26 17:59:55;;;;;;;4.33;2.93;;;11.30;99.90;;;;;;5119590;28;20179;-83
2022/09/26 18:02:35;;;;;;;4.40;2.80;;;11.30;99.90;;;;;;5120760;28;20180;-83
2022/09/26 18:05:07;;;;;;;4.60;3.20;;;11.30;99.90;;;;;;5119622;28;20199;-82
2022/09/26 18:07:38;;;;;;;4.37;3.47;;;11.30;99.90;;;;;;5120121;28;20547;-83
2022/09/26 18:10:09;;;;;;;4.57;3.30;;;11.30;99.90;;;;;;5120376;28;20226;-82
2022/09/26 18:12:35;;;;;;;4.80;3.57;;;11.30;99.90;;;;;;5123101;28;20164;-83
2022/09/26 18:15:02;;;;;;;5.23;3.27;;;11.20;99.90;;;;;;5130080;28;20191;-82
2022/09/26 18:17:28;;;;;;;6.53;3.43;;;11.30;99.90;;;;;;5135152;28;20174;-82
2022/09/26 18:19:54;;;;;;;4.30;3.27;;;11.20;99.90;;;;;;5135760;28;20199;-82
2022/09/26 18:22:26;;;;;;;5.20;3.97;;;11.20;99.90;;;;;;5125775;28;20548;-82
2022/09/26 18:24:57;;;;;;;6.20;3.50;;;11.20;99.90;;;;;;5122411;28;20663;-83
2022/09/26 18:27:23;;;;;;;6.37;4.23;;;11.20;99.90;;;;;;5120104;28;20193;-82
2022/09/26 18:29:49;;;;;;;8.23;3.60;;;11.20;99.90;;;;;;5119040;28;20290;-81
2022/09/26 18:32:25;;;;;;;5.80;4.23;;;11.10;99.90;;;;;;5121090;28;20172;-81
2022/09/26 18:34:52;;;;;;;7.07;3.77;;;11.10;99.90;;;;;;5118282;28;20228;-81
2022/09/26 18:37:18;;;;;;;6.17;4.33;;;11.10;99.90;;;;;;5118979;28;20239;-81
2022/09/26 18:39:44;;;;;;;4.50;3.50;;;11.00;99.90;;;;;;5120456;28;20203;-82
2022/09/26 18:42:16;;;;;;;5.20;3.60;;;11.00;99.90;;;;;;5120369;28;20183;-81
2022/09/26 18:44:42;;;;;;;5.70;3.70;;;11.00;99.90;;;;;;5118283;28;20195;-81
2022/09/26 18:47:13;;;;;;;8.20;3.77;;;10.90;99.90;;;;;;5120557;28;20175;-80
2022/09/26 18:49:39;;;;;;;5.27;3.60;;;10.90;99.90;;;;;;5124714;28;20559;-82
2022/09/26 18:52:16;;;;;;;4.77;3.60;;;10.90;99.90;;;;;;5118033;28;20229;-81
2022/09/26 18:58:22;;;;;;;7.23;4.67;;;10.90;99.90;;;;;;5118819;28;20187;-82
2022/09/26 19:00:15;;;;;;;8.17;5.13;;;10.90;99.90;;;;;;5119166;28;20270;-81
2022/09/26 19:02:41;;;;;;;5.73;3.60;;;10.90;99.90;;;;;;5119239;28;20206;-81
2022/09/26 19:05:13;;;;;;;7.70;4.80;;;10.90;99.90;;;;;;5117951;28;20290;-80
2022/09/26 19:07:39;;;;;;;7.40;4.80;;;10.90;99.90;;;;;;5118364;28;20167;-81
2022/09/26 19:10:09;;;;;;;6.73;4.10;;;10.90;99.90;;;;;;5118716;28;20195;-79
2022/09/26 19:12:37;;;;;;;7.33;4.47;;;10.80;99.90;;;;;;5117552;28;20206;-82
2022/09/26 19:15:13;;;;;;;5.23;3.87;;;10.80;99.90;;;;;;5119222;28;20594;-81
2022/09/26 19:17:39;;;;;;;6.10;4.23;;;10.70;99.90;;;;;;5117382;28;20262;-81
2022/09/26 19:20:04;;;;;;;5.80;3.83;;;10.60;99.90;;;;;;5116759;28;20225;-82
2022/09/26 19:22:30;;;;;;;6.57;4.13;;;10.60;99.90;;;;;;5117430;28;20193;-81
2022/09/26 19:24:58;;;;;;;6.77;4.13;;;10.60;99.90;;;;;;5116558;28;20204;-81
2022/09/26 19:27:47;;;;;;;7.27;4.00;;;10.60;99.90;;;;;;5116441;28;20175;-81
2022/09/26 19:30:16;;;;;;;6.17;3.77;;;10.50;99.90;;;;;;5115963;28;20575;-81
2022/09/26 19:32:45;;;;;;;4.87;3.90;;;10.50;99.90;;;;;;5116815;28;20171;-81
2022/09/26 19:35:29;;;;;;;8.93;4.87;;;10.50;99.90;;;;;;5116656;28;20187;-81
2022/09/26 19:37:55;;;;;;;9.90;5.17;;;10.50;99.90;;;;;;5115405;28;20224;-81
2022/09/26 19:40:22;;;;;;;8.20;5.43;;;10.40;99.90;;;;;;5114982;28;20229;-80
2022/09/26 19:42:48;;;;;;;7.13;4.20;;;10.40;99.90;;;;;;5116693;28;20172;-81
2022/09/26 19:45:14;;;;;;;10.83;4.70;;;10.40;99.90;;;;;;5114695;28;20203;-81
2022/09/26 19:47:44;;;;;;;10.87;5.93;;;10.40;99.90;;;;;;5116933;28;20572;-81
2022/09/26 19:50:18;;;;;;;11.37;6.17;;;10.40;99.90;;;;;;5115129;28;20225;-82
2022/09/26 19:52:44;;;;;;;12.63;6.20;;;10.40;99.90;;;;;;5115104;28;20295;-80
2022/09/26 19:55:16;;;;;;;14.10;6.43;;;10.40;99.90;;;;;;5114741;28;20805;-81
2022/09/26 19:57:42;;;;;;;23.07;10.33;;;10.30;99.90;;;;;;5115303;28;20198;-80
2022/09/26 20:00:10;;;;;;;17.57;7.67;;;10.30;99.90;;;;;;5118823;28;20637;-82
2022/09/26 20:02:36;;;;;;;17.23;8.40;;;10.30;99.90;;;;;;5117939;28;20179;-82
2022/09/26 20:05:24;;;;;;;11.60;6.17;;;10.30;99.90;;;;;;5116712;28;20202;-83
2022/09/26 20:07:51;;;;;;;16.90;8.23;;;10.30;99.90;;;;;;5115858;28;20186;-82
2022/09/26 20:10:21;;;;;;;9.63;5.23;;;10.20;99.90;;;;;;5116682;28;20668;-82
2022/09/26 20:12:47;;;;;;;13.73;5.93;;;10.20;99.90;;;;;;5118536;28;20171;-81
2022/09/26 20:15:15;;;;;;;15.80;7.07;;;10.20;99.90;;;;;;5118049;28;20205;-82
2022/09/26 20:17:43;;;;;;;19.43;9.57;;;10.20;99.90;;;;;;5116267;28;20556;-82
2022/09/26 20:20:27;;;;;;;15.93;10.27;;;10.20;99.90;;;;;;5118184;28;20178;-82
2022/09/26 20:22:55;;;;;;;14.07;7.73;;;10.30;99.90;;;;;;5118572;28;20242;-83
2022/09/26 20:25:31;;;;;;;13.37;8.13;;;10.20;99.90;;;;;;5117968;28;20599;-82
2022/09/26 20:27:58;;;;;;;6.80;4.47;;;10.30;99.90;;;;;;5116385;28;20171;-82
2022/09/26 20:33:10;;;;;;;9.87;6.73;;;10.20;99.90;;;;;;5118699;28;20256;-82
2022/09/26 20:35:41;;;;;;;7.87;6.77;;;10.20;99.90;;;;;;5116628;28;20203;-82
2022/09/26 20:38:15;;;;;;;6.53;5.10;;;10.30;99.90;;;;;;5116408;28;20172;-82
2022/09/26 20:40:40;;;;;;;7.63;5.33;;;10.20;99.90;;;;;;5116989;28;20186;-82
2022/09/26 20:43:13;;;;;;;4.53;3.77;;;10.30;99.90;;;;;;5117458;28;20547;-82
2022/09/26 20:45:40;;;;;;;5.23;3.80;;;10.30;99.90;;;;;;5117948;28;20195;-82
2022/09/26 20:48:07;;;;;;;7.17;4.10;;;10.30;99.90;;;;;;5117440;28;20183;-81
2022/09/26 20:50:36;;;;;;;4.20;3.80;;;10.30;99.90;;;;;;5115959;28;20215;-83
2022/09/26 20:53:02;;;;;;;6.00;3.13;;;10.30;99.90;;;;;;5115859;28;20180;-83
2022/09/26 20:55:31;;;;;;;2.33;2.13;;;10.40;99.90;;;;;;5117229;28;20223;-82
2022/09/26 20:57:57;;;;;;;3.23;2.50;;;10.40;99.90;;;;;;5119209;28;20167;-81
2022/09/26 21:00:23;;;;;;;3.13;1.83;;;;;;;;;;5119684;28;20629;-81
2022/09/26 21:02:51;;;;;;;2.00;1.80;;;10.40;99.90;;;;;;5122996;28;20180;-82
2022/09/26 21:05:23;;;;;;;3.33;2.70;;;10.40;99.90;;;;;;5122747;28;20220;-81
2022/09/26 21:07:50;;;;;;;2.40;2.00;;;10.40;99.90;;;;;;5121328;28;20214;-82
2022/09/26 21:10:20;;;;;;;1.67;1.57;;;10.40;99.90;;;;;;5121936;28;20203;-82
2022/09/26 21:12:46;;;;;;;2.90;2.00;;;10.50;99.90;;;;;;5119609;28;20171;-82
2022/09/26 21:15:11;;;;;;;1.93;1.53;;;10.40;99.90;;;;;;5121108;28;20191;-82
2022/09/26 21:17:37;;;;;;;1.80;1.60;;;10.40;99.90;;;;;;5120971;28;20213;-82
2022/09/26 21:20:04;;;;;;;2.77;1.77;;;10.40;99.90;;;;;;5119515;28;20182;-82
2022/09/26 21:22:29;;;;;;;2.50;1.90;;;10.40;99.90;;;;;;5121179;28;20168;-81
2022/09/26 21:24:55;;;;;;;4.23;1.60;;;10.30;99.90;;;;;;5120302;28;20276;-82
2022/09/26 21:27:21;;;;;;;2.23;1.80;;;10.30;99.90;;;;;;5118879;28;20612;-82
2022/09/26 21:29:47;;;;;;;2.60;1.60;;;10.30;99.90;;;;;;5119785;28;20210;-81
2022/09/26 21:32:21;;;;;;;2.00;1.67;;;10.30;99.90;;;;;;5118077;28;20176;-81